MSC Arica — 9HA3320 — position and weather

sailwx.info

Track history (hours):
 
Tides and Currents Weather Stations Pressure Air Temp Water Temp Dewpoint Dewpoint Depression Visibility Wind Speed Wind Dir Waves Ship Positions

MSC Arica

Last reported at 2017-Nov-18 02:30 UTC. Time now 2017-Nov-18 02:59 UTC.
Position N 51°16' E 001°53'.

Length 299 m; draft 13.8 m.

Type: Cargo ship. MMSI: 229423000.

Date/timePositionNaut miles runAvg speedWind from/ knotsBaromVisibWave heightAir tempDewpointWater temp
2017-Nov-18 02:30N 51°16' E 001°53'918.3
2017-Nov-18 02:00N 51°09' E 001°43'918.4
2017-Nov-18 01:30N 51°01' E 001°35'918.7
2017-Nov-18 01:00N 50°53' E 001°27'918.3
2017-Nov-18 00:30N 50°44' E 001°23'917.5
2017-Nov-18 00:00N 50°38' E 001°13'917.7
2017-Nov-17 23:30N 50°32' E 001°03'917.3
2017-Nov-17 22:59N 50°28' E 000°50'817.4
2017-Nov-17 22:30N 50°26' E 000°38'917.4
2017-Nov-17 22:00N 50°23' E 000°25'917.4
2017-Nov-17 21:30N 50°21' E 000°11'917.3
2017-Nov-17 21:00N 50°19' W 000°02'917.7
2017-Nov-17 20:30N 50°17' W 000°15'918.2
2017-Nov-17 20:00N 50°15' W 000°29'2018.5
2017-Nov-17 18:55N 50°09' W 000°59'1419.7
2017-Nov-17 18:14N 50°06' W 001°19'419.4
2017-Nov-17 18:00N 50°05' W 001°26'1019.1
2017-Nov-17 17:31N 50°03' W 001°41'1019.5
2017-Nov-17 17:00N 50°00' W 001°55'1019.2
2017-Nov-17 16:31N 49°58' W 002°10'1218.9
2017-Nov-17 15:54N 49°55' W 002°27'718.9
2017-Nov-17 15:30N 49°53' W 002°38'1019.2
2017-Nov-17 15:00N 49°50' W 002°52'1019.4
2017-Nov-17 14:30N 49°46' W 003°06'1019.3
2017-Nov-17 14:00N 49°42' W 003°19'1019.3
2017-Nov-17 13:29N 49°37' W 003°33'919.2
2017-Nov-17 13:00N 49°32' W 003°45'3419.0
2017-Nov-17 11:14N 49°15' W 004°29'718.5
2017-Nov-17 10:53N 49°11' W 004°38'718.4
2017-Nov-17 10:28N 49°07' W 004°48'918.1
2017-Nov-17 10:00N 49°03' W 004°59'1017.8
2017-Nov-17 09:27N 48°58' W 005°11'817.5
2017-Nov-17 09:00N 48°54' W 005°21'917.8
2017-Nov-17 08:30N 48°48' W 005°32'917.0
2017-Nov-17 07:59N 48°41' W 005°40'816.4
2017-Nov-17 07:30N 48°34' W 005°46'814.8
2017-Nov-17 06:57N 48°26' W 005°51'714.9
2017-Nov-17 06:29N 48°20' W 005°56'815.3
2017-Nov-17 05:56N 48°13' W 006°02'715.6
2017-Nov-17 05:29N 48°07' W 006°06'1316.2
2017-Nov-17 04:42N 47°55' W 006°15'418.3
2017-Nov-17 04:28N 47°52' W 006°18'1518.6
2017-Nov-17 03:42N 47°39' W 006°29'6318.7
2017-Nov-17 00:20N 46°43' W 007°12'1618.1
2017-Nov-16 23:28N 46°30' W 007°23'21418.2
2017-Nov-16 11:44N 43°20' W 009°41'22717.2
2017-Nov-15 22:35N 39°33' W 009°51'217.0
2017-Nov-15 22:27N 39°31' W 009°51'817.2
2017-Nov-15 22:00N 39°23' W 009°51'917.6
2017-Nov-15 21:30N 39°14' W 009°51'917.7
2017-Nov-15 21:00N 39°06' W 009°51'917.5
2017-Nov-15 20:30N 38°57' W 009°51'917.6
2017-Nov-15 20:00N 38°48' W 009°51'917.4
2017-Nov-15 19:30N 38°39' W 009°50'817.0
2017-Nov-15 19:00N 38°31' W 009°48'917.0
2017-Nov-15 18:30N 38°23' W 009°45'816.9
2017-Nov-15 18:00N 38°14' W 009°43'816.8
2017-Nov-15 17:30N 38°06' W 009°41'917.5
2017-Nov-15 17:00N 37°58' W 009°38'917.5
2017-Nov-15 16:30N 37°49' W 009°36'917.2
2017-Nov-15 16:00N 37°41' W 009°33'917.3
2017-Nov-15 15:28N 37°32' W 009°31'817.4
2017-Nov-15 15:00N 37°24' W 009°29'1217.6
2017-Nov-15 14:19N 37°12' W 009°25'6616.0
2017-Nov-15 10:12N 36°33' W 008°19'717.6
2017-Nov-15 09:48N 36°30' W 008°11'517.9
2017-Nov-15 09:30N 36°28' W 008°05'12517.6
2017-Nov-15 02:23N 35°57' W 005°35'462 9.5
2017-Nov-13 01:52N 30°20' W 011°52'2318.7
2017-Nov-13 00:40N 30°01' W 012°07'2518.7
2017-Nov-12 23:21N 29°41' W 012°23'618.9
2017-Nov-12 23:00N 29°36' W 012°27'1019.0
2017-Nov-12 22:30N 29°28' W 012°33'919.0
2017-Nov-12 22:00N 29°20' W 012°40'1019.1
2017-Nov-12 21:30N 29°12' W 012°46'918.8
2017-Nov-12 21:00N 29°05' W 012°52'1019.0
2017-Nov-12 20:30N 28°57' W 012°58'1318.7
2017-Nov-12 19:49N 28°46' W 013°07'3619.2
2017-Nov-12 17:57N 28°17' W 013°30'1619.5
2017-Nov-12 17:08N 28°04' W 013°40'219.2
2017-Nov-12 17:00N 28°02' W 013°42'1019.0
2017-Nov-12 16:30N 27°54' W 013°48'1019.1
2017-Nov-12 16:00N 27°47' W 013°55'918.9
2017-Nov-12 15:30N 27°40' W 014°02'918.6
2017-Nov-12 15:00N 27°32' W 014°09'1019.5
2017-Nov-12 14:30N 27°25' W 014°16'1019.5
2017-Nov-12 14:00N 27°17' W 014°23'1019.6
2017-Nov-12 13:30N 27°09' W 014°29'2719.7
2017-Nov-12 12:07N 26°49' W 014°50'319.7
2017-Nov-12 11:59N 26°47' W 014°52'8919.4
2017-Nov-12 07:23N 25°38' W 015°55'919.2
2017-Nov-12 06:54N 25°31' W 016°01'819.4
2017-Nov-12 06:30N 25°25' W 016°06'918.9
2017-Nov-12 06:00N 25°18' W 016°13'1319.3
2017-Nov-12 05:20N 25°08' W 016°23'819.4
2017-Nov-12 04:56N 25°02' W 016°29'818.8
2017-Nov-12 04:29N 24°56' W 016°35'918.5
2017-Nov-12 04:00N 24°49' W 016°41'1118.5
2017-Nov-12 03:23N 24°40' W 016°49'918.4
2017-Nov-12 02:54N 24°33' W 016°55'918.5
2017-Nov-12 02:26N 24°27' W 017°01'818.4
2017-Nov-12 01:58N 24°20' W 017°07'1018.4
2017-Nov-12 01:24N 24°12' W 017°14'3018.0
2017-Nov-11 23:45N 23°50' W 017°36'19718.2
2017-Nov-11 12:57N 21°14' W 019°46'817.7
2017-Nov-11 12:29N 21°08' W 019°53'13818.4
2017-Nov-11 05:00N 19°19' W 021°23'  
Track history (hours):
 
Tides and Currents Weather Stations Pressure Air Temp Water Temp Dewpoint Dewpoint Depression Visibility Wind Speed Wind Dir Waves Ship Positions

MSC Arica

Last reported at 2017-Nov-18 02:30 UTC. Time now 2017-Nov-18 02:59 UTC.
Position N 51°16' E 001°53'.

Length 299 m; draft 13.8 m.

Type: Cargo ship. MMSI: 229423000.

Date/timePositionNaut miles runAvg speedWind from/ knotsBaromVisibWave heightAir tempDewpointWater temp
2017-Nov-18 02:30N 51°16' E 001°53'918.3
2017-Nov-18 02:00N 51°09' E 001°43'918.4
2017-Nov-18 01:30N 51°01' E 001°35'918.7
2017-Nov-18 01:00N 50°53' E 001°27'918.3
2017-Nov-18 00:30N 50°44' E 001°23'917.5
2017-Nov-18 00:00N 50°38' E 001°13'917.7
2017-Nov-17 23:30N 50°32' E 001°03'917.3
2017-Nov-17 22:59N 50°28' E 000°50'817.4
2017-Nov-17 22:30N 50°26' E 000°38'917.4
2017-Nov-17 22:00N 50°23' E 000°25'917.4
2017-Nov-17 21:30N 50°21' E 000°11'917.3
2017-Nov-17 21:00N 50°19' W 000°02'917.7
2017-Nov-17 20:30N 50°17' W 000°15'918.2
2017-Nov-17 20:00N 50°15' W 000°29'2018.5
2017-Nov-17 18:55N 50°09' W 000°59'1419.7
2017-Nov-17 18:14N 50°06' W 001°19'419.4
2017-Nov-17 18:00N 50°05' W 001°26'1019.1
2017-Nov-17 17:31N 50°03' W 001°41'1019.5
2017-Nov-17 17:00N 50°00' W 001°55'1019.2
2017-Nov-17 16:31N 49°58' W 002°10'1218.9
2017-Nov-17 15:54N 49°55' W 002°27'718.9
2017-Nov-17 15:30N 49°53' W 002°38'1019.2
2017-Nov-17 15:00N 49°50' W 002°52'1019.4
2017-Nov-17 14:30N 49°46' W 003°06'1019.3
2017-Nov-17 14:00N 49°42' W 003°19'1019.3
2017-Nov-17 13:29N 49°37' W 003°33'919.2
2017-Nov-17 13:00N 49°32' W 003°45'3419.0
2017-Nov-17 11:14N 49°15' W 004°29'718.5
2017-Nov-17 10:53N 49°11' W 004°38'718.4
2017-Nov-17 10:28N 49°07' W 004°48'918.1
2017-Nov-17 10:00N 49°03' W 004°59'1017.8
2017-Nov-17 09:27N 48°58' W 005°11'817.5
2017-Nov-17 09:00N 48°54' W 005°21'917.8
2017-Nov-17 08:30N 48°48' W 005°32'917.0
2017-Nov-17 07:59N 48°41' W 005°40'816.4
2017-Nov-17 07:30N 48°34' W 005°46'814.8
2017-Nov-17 06:57N 48°26' W 005°51'714.9
2017-Nov-17 06:29N 48°20' W 005°56'815.3
2017-Nov-17 05:56N 48°13' W 006°02'715.6
2017-Nov-17 05:29N 48°07' W 006°06'1316.2
2017-Nov-17 04:42N 47°55' W 006°15'418.3
2017-Nov-17 04:28N 47°52' W 006°18'1518.6
2017-Nov-17 03:42N 47°39' W 006°29'6318.7
2017-Nov-17 00:20N 46°43' W 007°12'1618.1
2017-Nov-16 23:28N 46°30' W 007°23'21418.2
2017-Nov-16 11:44N 43°20' W 009°41'22717.2
2017-Nov-15 22:35N 39°33' W 009°51'217.0
2017-Nov-15 22:27N 39°31' W 009°51'817.2
2017-Nov-15 22:00N 39°23' W 009°51'917.6
2017-Nov-15 21:30N 39°14' W 009°51'917.7
2017-Nov-15 21:00N 39°06' W 009°51'917.5
2017-Nov-15 20:30N 38°57' W 009°51'917.6
2017-Nov-15 20:00N 38°48' W 009°51'917.4
2017-Nov-15 19:30N 38°39' W 009°50'817.0
2017-Nov-15 19:00N 38°31' W 009°48'917.0
2017-Nov-15 18:30N 38°23' W 009°45'816.9
2017-Nov-15 18:00N 38°14' W 009°43'816.8
2017-Nov-15 17:30N 38°06' W 009°41'917.5
2017-Nov-15 17:00N 37°58' W 009°38'917.5
2017-Nov-15 16:30N 37°49' W 009°36'917.2
2017-Nov-15 16:00N 37°41' W 009°33'917.3
2017-Nov-15 15:28N 37°32' W 009°31'817.4
2017-Nov-15 15:00N 37°24' W 009°29'1217.6
2017-Nov-15 14:19N 37°12' W 009°25'6616.0
2017-Nov-15 10:12N 36°33' W 008°19'717.6
2017-Nov-15 09:48N 36°30' W 008°11'517.9
2017-Nov-15 09:30N 36°28' W 008°05'12517.6
2017-Nov-15 02:23N 35°57' W 005°35'462 9.5
2017-Nov-13 01:52N 30°20' W 011°52'2318.7
2017-Nov-13 00:40N 30°01' W 012°07'2518.7
2017-Nov-12 23:21N 29°41' W 012°23'618.9
2017-Nov-12 23:00N 29°36' W 012°27'1019.0
2017-Nov-12 22:30N 29°28' W 012°33'919.0
2017-Nov-12 22:00N 29°20' W 012°40'1019.1
2017-Nov-12 21:30N 29°12' W 012°46'918.8
2017-Nov-12 21:00N 29°05' W 012°52'1019.0
2017-Nov-12 20:30N 28°57' W 012°58'1318.7
2017-Nov-12 19:49N 28°46' W 013°07'3619.2
2017-Nov-12 17:57N 28°17' W 013°30'1619.5
2017-Nov-12 17:08N 28°04' W 013°40'219.2
2017-Nov-12 17:00N 28°02' W 013°42'1019.0
2017-Nov-12 16:30N 27°54' W 013°48'1019.1
2017-Nov-12 16:00N 27°47' W 013°55'918.9
2017-Nov-12 15:30N 27°40' W 014°02'918.6
2017-Nov-12 15:00N 27°32' W 014°09'1019.5
2017-Nov-12 14:30N 27°25' W 014°16'1019.5
2017-Nov-12 14:00N 27°17' W 014°23'1019.6
2017-Nov-12 13:30N 27°09' W 014°29'2719.7
2017-Nov-12 12:07N 26°49' W 014°50'319.7
2017-Nov-12 11:59N 26°47' W 014°52'8919.4
2017-Nov-12 07:23N 25°38' W 015°55'919.2
2017-Nov-12 06:54N 25°31' W 016°01'819.4
2017-Nov-12 06:30N 25°25' W 016°06'918.9
2017-Nov-12 06:00N 25°18' W 016°13'1319.3
2017-Nov-12 05:20N 25°08' W 016°23'819.4
2017-Nov-12 04:56N 25°02' W 016°29'818.8
2017-Nov-12 04:29N 24°56' W 016°35'918.5
2017-Nov-12 04:00N 24°49' W 016°41'1118.5
2017-Nov-12 03:23N 24°40' W 016°49'918.4
2017-Nov-12 02:54N 24°33' W 016°55'918.5
2017-Nov-12 02:26N 24°27' W 017°01'818.4
2017-Nov-12 01:58N 24°20' W 017°07'1018.4
2017-Nov-12 01:24N 24°12' W 017°14'3018.0
2017-Nov-11 23:45N 23°50' W 017°36'19718.2
2017-Nov-11 12:57N 21°14' W 019°46'817.7
2017-Nov-11 12:29N 21°08' W 019°53'13818.4
2017-Nov-11 05:00N 19°19' W 021°23'  

Dump ship's entire track history